Terminal Aerodrome Forecast
Issued by NWS Shreveport, LA

Home | Current Version | Previous Version | Text Only | Print | Product List | Glossary On
Versions: 1 2 3 4 5 6 7 8 9 10 11 12 13 14 15 16 17 18
126
FTUS44 KSHV 220537
TAFGGG
TAF
KGGG 220537Z 2206/2306 VRB05KT 6SM -TSRA SCT015 OVC025CB
     FM220700 30006KT P6SM VCSH OVC015
     FM221000 32008KT P6SM OVC010
     FM221500 32011G18KT P6SM OVC015
     FM221900 30015G24KT P6SM BKN035
     FM230000 29011KT P6SM BKN040=

USA.gov is the U.S. government's official web portal to all federal, state and local government web resources and services.